Time,TemperatureF,DewpointF,PressureIn,WindDirection,WindDirectionDegrees,WindSpeedMPH,WindSpeedGustMPH,Humidity,HourlyPrecipIn,Conditions,Clouds,dailyrainin,SoftwareType,DateUTC
2013-10-13 00:01:00,62.6,57.7,30.01,SW,223,0.0,0.0,84,0.00,RA,,0.00,WeatherDisplay:10.37,2013-10-13 04:01:00,
2013-10-13 00:02:00,62.6,58.0,30.01,SW,222,0.0,0.0,85,0.00,RA,,0.00,WeatherDisplay:10.37,2013-10-13 04:02:00,
2013-10-13 00:03:00,62.6,58.0,30.01,SW,223,0.0,0.0,85,0.00,RA,,0.00,WeatherDisplay:10.37,2013-10-13 04:03:00,
2013-10-13 00:04:00,62.6,58.0,30.01,SW,223,0.0,0.0,85,0.00,RA,,0.00,WeatherDisplay:10.37,2013-10-13 04:04:00,
2013-10-13 00:08:00,62.6,58.0,30.01,SW,223,0.0,0.0,85,0.00,RA,,0.00,WeatherDisplay:10.37,2013-10-13 04:08:00,
2013-10-13 00:13:00,62.5,58.3,30.01,SW,230,4.0,4.0,86,0.00,CLR,,0.00,WeatherDisplay:10.37,2013-10-13 04:13:00,
2013-10-13 00:18:00,62.6,58.4,30.01,SW,227,0.0,0.0,86,0.00,CLR,,0.00,WeatherDisplay:10.37,2013-10-13 04:18:00,
2013-10-13 00:23:00,62.6,58.7,30.01,SW,225,3.5,3.5,87,0.00,CLR,,0.00,WeatherDisplay:10.37,2013-10-13 04:23:00,
2013-10-13 00:28:00,62.6,58.7,30.01,SW,221,0.0,0.0,87,0.00,CLR,,0.00,WeatherDisplay:10.37,2013-10-13 04:28:00,
2013-10-13 00:33:00,62.6,59.0,30.01,SW,218,2.3,2.3,88,0.00,CLR,,0.00,WeatherDisplay:10.37,2013-10-13 04:33:00,
2013-10-13 00:38:00,62.6,59.3,30.01,SSW,200,3.5,3.5,89,0.00,CLR,,0.00,WeatherDisplay:10.37,2013-10-13 04:38:00,
2013-10-13 00:43:00,62.6,59.3,30.01,SW,221,3.5,3.5,89,0.00,CLR,,0.00,WeatherDisplay:10.37,2013-10-13 04:43:00,
2013-10-13 00:48:00,62.5,59.5,30.01,SW,221,1.1,0.0,90,0.00,CLR,,0.00,WeatherDisplay:10.37,2013-10-13 04:48:00,
2013-10-13 00:53:00,62.6,59.6,30.01,SW,232,0.0,0.0,90,0.00,CLR,,0.00,WeatherDisplay:10.37,2013-10-13 04:53:00,
2013-10-13 00:58:00,62.5,59.5,30.01,SW,232,5.8,5.8,90,0.00,CLR,,0.00,WeatherDisplay:10.37,2013-10-13 04:58:00,
2013-10-13 01:03:00,62.4,59.7,30.02,SW,236,0.0,0.0,91,0.00,CLR,,0.00,WeatherDisplay:10.37,2013-10-13 05:03:00,
2013-10-13 01:08:00,62.3,59.6,30.02,SW,231,0.0,0.0,91,0.00,CLR,,0.00,WeatherDisplay:10.37,2013-10-13 05:08:00,
2013-10-13 01:13:00,62.3,59.9,30.02,SW,229,1.1,1.1,92,0.00,CLR,,0.00,WeatherDisplay:10.37,2013-10-13 05:13:00,
2013-10-13 01:18:00,62.2,59.8,30.02,SW,223,1.1,0.0,92,0.00,CLR,,0.00,WeatherDisplay:10.37,2013-10-13 05:18:00,
2013-10-13 01:23:00,62.2,59.8,30.02,SW,217,0.0,0.0,92,0.00,CLR,,0.00,WeatherDisplay:10.37,2013-10-13 05:23:00,
2013-10-13 01:28:00,62.1,59.7,30.02,SW,216,3.5,3.5,92,0.00,CLR,,0.00,WeatherDisplay:10.37,2013-10-13 05:28:00,
2013-10-13 01:33:00,62.1,59.7,30.03,SW,229,3.5,3.5,92,0.00,CLR,,0.00,WeatherDisplay:10.37,2013-10-13 05:33:00,
2013-10-13 01:38:00,61.9,59.5,30.03,SW,221,2.3,2.3,92,0.00,CLR,,0.00,WeatherDisplay:10.37,2013-10-13 05:38:00,
2013-10-13 01:43:00,61.7,59.7,30.03,SW,232,3.5,3.5,93,0.00,CLR,,0.00,WeatherDisplay:10.37,2013-10-13 05:43:00,
2013-10-13 01:48:00,61.5,59.2,30.03,WSW,237,3.5,3.5,92,0.00,CLR,,0.00,WeatherDisplay:10.37,2013-10-13 05:48:00,
2013-10-13 01:53:00,61.3,59.3,30.04,WSW,244,3.5,0.0,93,0.00,CLR,,0.00,WeatherDisplay:10.37,2013-10-13 05:53:00,
2013-10-13 01:58:00,61.0,59.0,30.04,WSW,254,4.6,0.0,93,0.00,CLR,,0.00,WeatherDisplay:10.37,2013-10-13 05:58:00,
2013-10-13 02:03:00,60.7,58.4,30.04,WSW,245,6.0,6.0,92,0.00,CLR,,0.00,WeatherDisplay:10.37,2013-10-13 06:03:00,
2013-10-13 02:08:00,60.5,58.2,30.04,WSW,242,4.6,0.0,92,0.00,CLR,,0.00,WeatherDisplay:10.37,2013-10-13 06:08:00,
2013-10-13 02:13:00,60.3,58.0,30.05,WSW,242,0.0,0.0,92,0.00,CLR,,0.00,WeatherDisplay:10.37,2013-10-13 06:13:00,
2013-10-13 02:18:00,60.1,57.8,30.05,WSW,243,1.1,0.0,92,0.00,CLR,,0.00,WeatherDisplay:10.37,2013-10-13 06:18:00,
2013-10-13 02:24:00,59.8,57.5,30.05,WSW,242,0.0,0.0,92,0.00,CLR,,0.00,WeatherDisplay:10.37,2013-10-13 06:24:00,
2013-10-13 02:29:00,59.6,57.3,30.05,WSW,246,9.2,9.2,92,0.00,CLR,,0.00,WeatherDisplay:10.37,2013-10-13 06:29:00,
2013-10-13 02:34:00,59.5,56.9,30.05,WSW,248,0.0,0.0,91,0.00,CLR,,0.00,WeatherDisplay:10.37,2013-10-13 06:34:00,
2013-10-13 02:39:00,59.2,56.6,30.06,WSW,248,5.8,5.8,91,0.00,CLR,,0.00,WeatherDisplay:10.37,2013-10-13 06:39:00,
2013-10-13 02:44:00,59.0,56.1,30.06,WSW,252,0.0,0.0,90,0.00,CLR,,0.00,WeatherDisplay:10.37,2013-10-13 06:44:00,
2013-10-13 02:49:00,59.0,55.1,30.06,WSW,242,6.9,6.9,87,0.00,CLR,,0.00,WeatherDisplay:10.37,2013-10-13 06:49:00,
2013-10-13 02:54:00,59.0,54.5,30.06,WNW,285,6.9,6.9,85,0.00,CLR,,0.00,WeatherDisplay:10.37,2013-10-13 06:54:00,
2013-10-13 02:59:00,59.0,54.2,30.07,SW,229,4.6,4.6,84,0.00,CLR,,0.00,WeatherDisplay:10.37,2013-10-13 06:59:00,
2013-10-13 03:04:00,58.9,53.7,30.07,West,261,2.3,2.3,83,0.00,CLR,,0.00,WeatherDisplay:10.37,2013-10-13 07:04:00,
2013-10-13 03:09:00,58.6,53.5,30.07,West,261,0.0,0.0,83,0.00,CLR,,0.00,WeatherDisplay:10.37,2013-10-13 07:09:00,
2013-10-13 03:14:00,58.4,52.9,30.07,West,271,0.0,0.0,82,0.00,CLR,,0.00,WeatherDisplay:10.37,2013-10-13 07:14:00,
2013-10-13 03:19:00,58.1,52.6,30.07,West,266,0.0,0.0,82,0.00,CLR,,0.00,WeatherDisplay:10.37,2013-10-13 07:19:00,
2013-10-13 03:24:00,57.9,52.4,30.08,West,266,0.0,0.0,82,0.00,CLR,,0.00,WeatherDisplay:10.37,2013-10-13 07:24:00,
2013-10-13 03:29:00,57.5,52.0,30.08,West,259,0.0,0.0,82,0.00,CLR,,0.00,WeatherDisplay:10.37,2013-10-13 07:29:00,
2013-10-13 03:34:00,57.1,51.7,30.08,WSW,258,3.5,3.5,82,0.00,CLR,,0.00,WeatherDisplay:10.37,2013-10-13 07:34:00,
2013-10-13 03:39:00,56.9,51.1,30.08,WSW,258,3.5,3.5,81,0.00,CLR,,0.00,WeatherDisplay:10.37,2013-10-13 07:39:00,
2013-10-13 03:44:00,56.6,50.8,30.08,WSW,256,1.0,0.0,81,0.00,CLR,,0.00,WeatherDisplay:10.37,2013-10-13 07:44:00,
2013-10-13 03:49:00,56.3,50.2,30.08,West,279,5.8,5.8,80,0.00,CLR,,0.00,WeatherDisplay:10.37,2013-10-13 07:49:00,
2013-10-13 03:54:00,56.1,49.7,30.08,West,268,0.0,0.0,79,0.00,CLR,,0.00,WeatherDisplay:10.37,2013-10-13 07:54:00,
2013-10-13 03:59:00,55.8,49.7,30.08,West,268,0.0,0.0,80,0.00,CLR,,0.00,WeatherDisplay:10.37,2013-10-13 07:59:00,
2013-10-13 04:04:00,55.5,49.4,30.08,West,269,0.0,0.0,80,0.00,CLR,,0.00,WeatherDisplay:10.37,2013-10-13 08:04:00,
2013-10-13 04:09:00,55.2,49.1,30.09,West,269,0.0,0.0,80,0.00,CLR,,0.00,WeatherDisplay:10.37,2013-10-13 08:09:00,
2013-10-13 04:14:00,54.8,48.7,30.09,West,268,0.0,0.0,80,0.00,CLR,,0.00,WeatherDisplay:10.37,2013-10-13 08:14:00,
2013-10-13 04:19:00,54.3,48.6,30.09,West,269,0.0,0.0,81,0.00,CLR,,0.00,WeatherDisplay:10.37,2013-10-13 08:19:00,
2013-10-13 04:24:00,53.9,48.5,30.09,West,268,1.1,1.1,82,0.00,CLR,,0.00,WeatherDisplay:10.37,2013-10-13 08:24:00,
2013-10-13 04:29:00,53.4,48.0,30.10,West,268,0.0,0.0,82,0.00,CLR,,0.00,WeatherDisplay:10.37,2013-10-13 08:29:00,
2013-10-13 04:34:00,53.1,47.7,30.10,West,268,0.0,0.0,82,0.00,CLR,,0.00,WeatherDisplay:10.37,2013-10-13 08:34:00,
2013-10-13 04:39:00,52.8,47.8,30.10,West,267,1.1,0.0,83,0.00,CLR,,0.00,WeatherDisplay:10.37,2013-10-13 08:39:00,
2013-10-13 04:44:00,52.6,47.6,30.10,West,269,0.0,0.0,83,0.00,CLR,,0.00,WeatherDisplay:10.37,2013-10-13 08:44:00,
2013-10-13 04:49:00,52.6,47.3,30.10,West,268,1.1,0.0,82,0.00,CLR,,0.00,WeatherDisplay:10.37,2013-10-13 08:49:00,
2013-10-13 04:54:00,52.5,47.2,30.11,West,268,0.0,0.0,82,0.00,CLR,,0.00,WeatherDisplay:10.37,2013-10-13 08:54:00,
2013-10-13 04:59:00,52.3,47.0,30.11,West,268,1.1,0.0,82,0.00,CLR,,0.00,WeatherDisplay:10.37,2013-10-13 08:59:00,
2013-10-13 05:04:00,52.1,47.1,30.11,West,268,0.0,0.0,83,0.00,CLR,,0.00,WeatherDisplay:10.37,2013-10-13 09:04:00,
2013-10-13 05:09:00,52.0,47.0,30.11,West,267,0.0,0.0,83,0.00,CLR,,0.00,WeatherDisplay:10.37,2013-10-13 09:09:00,
2013-10-13 05:14:00,51.9,46.9,30.11,West,267,0.0,0.0,83,0.00,CLR,,0.00,WeatherDisplay:10.37,2013-10-13 09:14:00,
2013-10-13 05:19:00,51.8,46.8,30.12,West,266,2.3,2.3,83,0.00,CLR,,0.00,WeatherDisplay:10.37,2013-10-13 09:19:00,
2013-10-13 05:24:00,51.5,46.5,30.12,West,266,2.0,2.0,83,0.00,CLR,,0.00,WeatherDisplay:10.37,2013-10-13 09:24:00,
2013-10-13 05:29:00,51.2,46.2,30.12,West,265,1.1,0.0,83,0.00,CLR,,0.00,WeatherDisplay:10.37,2013-10-13 09:29:00,
2013-10-13 05:34:00,51.0,46.3,30.12,West,265,0.0,0.0,84,0.00,CLR,,0.00,WeatherDisplay:10.37,2013-10-13 09:34:00,
2013-10-13 05:39:00,50.9,46.2,30.12,West,265,0.0,0.0,84,0.00,CLR,,0.00,WeatherDisplay:10.37,2013-10-13 09:39:00,
2013-10-13 05:44:00,50.7,46.0,30.13,West,265,0.0,0.0,84,0.00,CLR,,0.00,WeatherDisplay:10.37,2013-10-13 09:44:00,
2013-10-13 05:49:00,50.4,46.1,30.13,West,265,1.1,0.0,85,0.00,CLR,,0.00,WeatherDisplay:10.37,2013-10-13 09:49:00,
2013-10-13 05:54:00,50.2,45.9,30.13,West,265,0.0,0.0,85,0.00,CLR,,0.00,WeatherDisplay:10.37,2013-10-13 09:54:00,
2013-10-13 05:59:00,49.9,45.6,30.13,West,265,1.1,0.0,85,0.00,CLR,,0.00,WeatherDisplay:10.37,2013-10-13 09:59:00,
2013-10-13 06:04:00,49.5,45.5,30.14,West,265,0.0,0.0,86,0.00,CLR,,0.00,WeatherDisplay:10.37,2013-10-13 10:04:00,
2013-10-13 06:09:00,49.1,45.4,30.14,West,265,0.0,0.0,87,0.00,CLR,,0.00,WeatherDisplay:10.37,2013-10-13 10:09:00,
2013-10-13 06:14:00,48.6,44.9,30.14,West,265,0.0,0.0,87,0.00,CLR,,0.00,WeatherDisplay:10.37,2013-10-13 10:14:00,
2013-10-13 06:19:00,48.1,44.7,30.14,West,265,0.0,0.0,88,0.00,CLR,,0.00,WeatherDisplay:10.37,2013-10-13 10:19:00,
2013-10-13 06:24:00,47.8,44.7,30.15,West,265,0.0,0.0,89,0.00,CLR,,0.00,WeatherDisplay:10.37,2013-10-13 10:24:00,
2013-10-13 06:29:00,47.5,44.4,30.15,West,265,0.0,0.0,89,0.00,CLR,,0.00,WeatherDisplay:10.37,2013-10-13 10:29:00,
2013-10-13 06:34:00,47.3,44.5,30.15,West,265,0.0,0.0,90,0.00,CLR,,0.00,WeatherDisplay:10.37,2013-10-13 10:34:00,
2013-10-13 06:39:00,47.0,44.2,30.15,West,265,0.0,0.0,90,0.00,CLR,,0.00,WeatherDisplay:10.37,2013-10-13 10:39:00,
2013-10-13 06:44:00,46.9,44.4,30.15,West,265,0.0,0.0,91,0.00,CLR,,0.00,WeatherDisplay:10.37,2013-10-13 10:44:00,
2013-10-13 06:49:00,46.5,44.0,30.15,West,265,0.0,0.0,91,0.00,CLR,,0.00,WeatherDisplay:10.37,2013-10-13 10:49:00,
2013-10-13 06:54:00,46.3,44.1,30.15,West,265,0.0,0.0,92,0.00,CLR,,0.00,WeatherDisplay:10.37,2013-10-13 10:54:00,
2013-10-13 06:59:00,46.1,43.9,30.15,West,265,0.0,0.0,92,0.00,CLR,,0.00,WeatherDisplay:10.37,2013-10-13 10:59:00,
2013-10-13 07:04:00,46.0,44.1,30.15,West,265,0.0,0.0,93,0.00,CLR,,0.00,WeatherDisplay:10.37,2013-10-13 11:04:00,
2013-10-13 07:09:00,46.0,44.1,30.16,West,265,0.0,0.0,93,0.00,CLR,,0.00,WeatherDisplay:10.37,2013-10-13 11:09:00,
2013-10-13 07:14:00,45.9,44.0,30.16,West,265,0.0,0.0,93,0.00,CLR,,0.00,WeatherDisplay:10.37,2013-10-13 11:14:00,
2013-10-13 07:19:00,45.7,43.8,30.16,West,265,0.0,0.0,93,0.00,CLR,,0.00,WeatherDisplay:10.37,2013-10-13 11:19:00,
2013-10-13 07:24:00,45.5,43.6,30.16,West,265,0.0,0.0,93,0.00,CLR,,0.00,WeatherDisplay:10.37,2013-10-13 11:24:00,
2013-10-13 07:29:00,45.2,43.3,30.16,West,265,0.0,0.0,93,0.00,CLR,,0.00,WeatherDisplay:10.37,2013-10-13 11:29:00,
2013-10-13 07:34:00,45.0,43.1,30.16,West,265,0.0,0.0,93,0.00,CLR,,0.00,WeatherDisplay:10.37,2013-10-13 11:34:00,
2013-10-13 07:39:00,44.7,42.8,30.16,West,265,0.0,0.0,93,0.00,CLR,,0.00,WeatherDisplay:10.37,2013-10-13 11:39:00,
2013-10-13 07:44:00,44.3,42.4,30.16,West,265,0.0,0.0,93,0.00,CLR,,0.00,WeatherDisplay:10.37,2013-10-13 11:44:00,
2013-10-13 07:49:00,44.1,42.2,30.16,West,265,0.0,0.0,93,0.00,CLR,,0.00,WeatherDisplay:10.37,2013-10-13 11:49:00,
2013-10-13 07:54:00,43.9,42.3,30.16,West,265,0.0,0.0,94,0.00,CLR,,0.00,WeatherDisplay:10.37,2013-10-13 11:54:00,
2013-10-13 07:59:00,43.7,42.1,30.16,West,265,0.0,0.0,94,0.00,CLR,,0.00,WeatherDisplay:10.37,2013-10-13 11:59:00,
2013-10-13 08:04:00,43.4,41.8,30.17,West,265,0.0,0.0,94,0.00,CLR,,0.00,WeatherDisplay:10.37,2013-10-13 12:04:00,
2013-10-13 08:09:00,43.3,41.7,30.17,West,265,0.0,0.0,94,0.00,CLR,,0.00,WeatherDisplay:10.37,2013-10-13 12:09:00,
2013-10-13 08:14:00,43.2,41.6,30.17,West,265,0.0,0.0,94,0.00,CLR,,0.00,WeatherDisplay:10.37,2013-10-13 12:14:00,
2013-10-13 08:19:00,43.1,41.5,30.17,West,265,0.0,0.0,94,0.00,CLR,,0.00,WeatherDisplay:10.37,2013-10-13 12:19:00,
2013-10-13 08:24:00,43.0,41.4,30.18,West,265,0.0,0.0,94,0.00,CLR,,0.00,WeatherDisplay:10.37,2013-10-13 12:24:00,
2013-10-13 08:29:00,43.1,41.8,30.18,West,265,0.0,0.0,95,0.00,CLR,,0.00,WeatherDisplay:10.37,2013-10-13 12:29:00,
2013-10-13 08:34:00,43.2,41.9,30.18,West,265,0.0,0.0,95,0.00,CLR,,0.00,WeatherDisplay:10.37,2013-10-13 12:34:00,
2013-10-13 08:39:00,43.5,42.2,30.19,West,265,0.0,0.1,95,0.00,CLR,,0.00,WeatherDisplay:10.37,2013-10-13 12:39:00,
2013-10-13 08:44:00,44.0,42.9,30.19,West,265,0.0,0.0,96,0.00,CLR,,0.00,WeatherDisplay:10.37,2013-10-13 12:44:00,
2013-10-13 08:49:00,44.4,43.3,30.19,West,265,0.0,0.0,96,0.00,CLR,,0.00,WeatherDisplay:10.37,2013-10-13 12:49:00,
2013-10-13 08:54:00,45.2,44.1,30.20,West,265,1.1,0.0,96,0.00,CLR,,0.00,WeatherDisplay:10.37,2013-10-13 12:54:00,
2013-10-13 08:59:00,45.7,44.6,30.20,WNW,291,1.1,0.0,96,0.00,CLR,,0.00,WeatherDisplay:10.37,2013-10-13 12:59:00,
2013-10-13 09:04:00,46.2,45.1,30.20,WNW,291,0.0,0.0,96,0.00,CLR,,0.00,WeatherDisplay:10.37,2013-10-13 13:04:00,
2013-10-13 09:09:00,46.6,45.5,30.20,WNW,291,1.1,1.1,96,0.00,CLR,,0.00,WeatherDisplay:10.37,2013-10-13 13:09:00,
2013-10-13 09:14:00,47.0,45.6,30.20,WNW,288,0.0,0.0,95,0.00,CLR,,0.00,WeatherDisplay:10.37,2013-10-13 13:14:00,
2013-10-13 09:19:00,47.7,46.1,30.20,West,279,2.0,2.0,94,0.00,CLR,,0.00,WeatherDisplay:10.37,2013-10-13 13:19:00,
2013-10-13 09:24:00,48.6,46.4,30.20,West,271,3.0,3.0,92,0.00,CLR,,0.00,WeatherDisplay:10.37,2013-10-13 13:24:00,
2013-10-13 09:29:00,49.3,46.2,30.20,West,269,0.0,0.0,89,0.00,CLR,,0.00,WeatherDisplay:10.37,2013-10-13 13:29:00,
2013-10-13 09:34:00,50.2,46.8,30.20,West,268,1.0,0.0,88,0.00,CLR,,0.00,WeatherDisplay:10.37,2013-10-13 13:34:00,
2013-10-13 09:39:00,50.7,46.4,30.20,WSW,244,1.1,1.1,85,0.00,CLR,,0.00,WeatherDisplay:10.37,2013-10-13 13:39:00,
2013-10-13 09:44:00,51.4,46.4,30.20,WSW,244,0.0,0.0,83,0.00,CLR,,0.00,WeatherDisplay:10.37,2013-10-13 13:44:00,
2013-10-13 09:49:00,51.9,46.3,30.21,WSW,246,4.6,4.6,81,0.00,CLR,,0.00,WeatherDisplay:10.37,2013-10-13 13:49:00,
2013-10-13 09:54:00,52.3,46.0,30.21,WSW,252,2.0,2.0,79,0.00,CLR,,0.00,WeatherDisplay:10.37,2013-10-13 13:54:00,
2013-10-13 09:59:00,52.8,46.1,30.21,WSW,250,4.6,4.6,78,0.00,CLR,,0.00,WeatherDisplay:10.37,2013-10-13 13:59:00,
2013-10-13 10:04:00,53.1,45.7,30.21,SW,223,4.6,0.0,76,0.00,CLR,,0.00,WeatherDisplay:10.37,2013-10-13 14:04:00,
2013-10-13 10:09:00,53.3,45.9,30.21,SW,221,3.5,3.5,76,0.00,CLR,,0.00,WeatherDisplay:10.37,2013-10-13 14:09:00,
2013-10-13 10:14:00,53.6,46.2,30.21,SW,223,3.0,3.0,76,0.00,CLR,,0.00,WeatherDisplay:10.37,2013-10-13 14:14:00,
2013-10-13 10:19:00,53.9,46.2,30.22,SW,230,5.8,5.8,75,0.00,CLR,,0.00,WeatherDisplay:10.37,2013-10-13 14:19:00,
2013-10-13 10:24:00,54.3,46.5,30.22,WSW,253,6.9,6.9,75,0.00,CLR,,0.00,WeatherDisplay:10.37,2013-10-13 14:24:00,
2013-10-13 10:29:00,54.6,46.1,30.22,SW,221,6.9,6.9,73,0.00,CLR,,0.00,WeatherDisplay:10.37,2013-10-13 14:29:00,
2013-10-13 10:34:00,54.8,45.9,30.22,NNW,331,10.4,10.4,72,0.00,CLR,,0.00,WeatherDisplay:10.37,2013-10-13 14:34:00,
2013-10-13 10:39:00,55.2,46.0,30.22,WSW,246,3.5,3.5,71,0.00,CLR,,0.00,WeatherDisplay:10.37,2013-10-13 14:39:00,
2013-10-13 10:44:00,55.5,46.2,30.22,West,268,4.0,4.0,71,0.00,CLR,,0.00,WeatherDisplay:10.37,2013-10-13 14:44:00,
2013-10-13 10:49:00,55.7,46.4,30.23,West,263,3.5,3.5,71,0.00,CLR,,0.00,WeatherDisplay:10.37,2013-10-13 14:49:00,
2013-10-13 10:54:00,56.2,46.5,30.23,NNW,334,2.0,2.0,70,0.00,CLR,,0.00,WeatherDisplay:10.37,2013-10-13 14:54:00,
2013-10-13 10:59:00,56.5,46.4,30.23,WSW,250,3.5,3.5,69,0.00,CLR,,0.00,WeatherDisplay:10.37,2013-10-13 14:59:00,
2013-10-13 11:04:00,56.0,45.6,30.23,West,263,6.9,6.9,68,0.00,CLR,,0.00,WeatherDisplay:10.37,2013-10-13 15:04:00,
2013-10-13 11:09:00,56.0,45.6,30.23,SW,232,11.5,11.5,68,0.00,CLR,,0.00,WeatherDisplay:10.37,2013-10-13 15:09:00,
2013-10-13 11:14:00,56.3,46.3,30.23,WSW,244,3.5,0.0,69,0.00,CLR,,0.00,WeatherDisplay:10.37,2013-10-13 15:14:00,
2013-10-13 11:19:00,56.7,45.9,30.23,SW,229,9.2,9.2,67,0.00,CLR,,0.00,WeatherDisplay:10.37,2013-10-13 15:19:00,
2013-10-13 11:24:00,56.5,46.4,30.23,SW,236,5.8,5.8,69,0.00,CLR,,0.00,WeatherDisplay:10.37,2013-10-13 15:24:00,
2013-10-13 11:29:00,56.8,46.0,30.23,NNW,340,5.0,5.0,67,0.00,CLR,,0.00,WeatherDisplay:10.37,2013-10-13 15:29:00,
2013-10-13 11:34:00,56.8,46.3,30.23,West,270,4.6,0.0,68,0.00,CLR,,0.00,WeatherDisplay:10.37,2013-10-13 15:34:00,
2013-10-13 11:39:00,57.3,46.4,30.23,West,281,3.5,3.5,67,0.00,CLR,,0.00,WeatherDisplay:10.37,2013-10-13 15:39:00,
2013-10-13 11:44:00,57.5,46.2,30.24,SW,223,4.6,4.6,66,0.00,CLR,,0.00,WeatherDisplay:10.37,2013-10-13 15:44:00,
2013-10-13 11:49:00,57.7,46.4,30.24,West,269,4.0,4.0,66,0.00,CLR,,0.00,WeatherDisplay:10.37,2013-10-13 15:49:00,
2013-10-13 11:54:00,57.8,45.7,30.23,SW,231,10.4,10.4,64,0.00,CLR,,0.00,WeatherDisplay:10.37,2013-10-13 15:54:00,
2013-10-13 11:59:00,57.6,46.3,30.23,SW,234,0.0,0.0,66,0.00,CLR,,0.00,WeatherDisplay:10.37,2013-10-13 15:59:00,
2013-10-13 12:04:00,58.0,46.3,30.23,WSW,238,5.8,5.8,65,0.00,CLR,,0.00,WeatherDisplay:10.37,2013-10-13 16:04:00,
2013-10-13 12:09:00,58.2,47.3,30.23,SW,217,0.0,0.0,67,0.00,CLR,,0.00,WeatherDisplay:10.37,2013-10-13 16:09:00,
2013-10-13 12:14:00,58.7,47.0,30.23,WSW,237,10.4,10.4,65,0.00,CLR,,0.00,WeatherDisplay:10.37,2013-10-13 16:14:00,
2013-10-13 12:19:00,58.6,47.3,30.23,SW,225,5.0,5.0,66,0.00,CLR,,0.00,WeatherDisplay:10.37,2013-10-13 16:19:00,
2013-10-13 12:24:00,58.7,47.0,30.24,WNW,301,6.9,6.9,65,0.00,CLR,,0.00,WeatherDisplay:10.37,2013-10-13 16:24:00,
2013-10-13 12:29:00,59.0,47.2,30.24,NW,316,2.3,2.3,65,0.00,CLR,,0.00,WeatherDisplay:10.37,2013-10-13 16:29:00,
2013-10-13 12:34:00,59.7,47.9,30.23,NNE,15,1.0,1.0,65,0.00,CLR,,0.00,WeatherDisplay:10.37,2013-10-13 16:34:00,
2013-10-13 12:39:00,59.9,47.3,30.23,SSE,163,1.1,1.1,63,0.00,CLR,,0.00,WeatherDisplay:10.37,2013-10-13 16:39:00,
2013-10-13 12:44:00,59.7,47.1,30.23,SSE,160,1.1,0.0,63,0.00,CLR,,0.00,WeatherDisplay:10.37,2013-10-13 16:44:00,
2013-10-13 12:49:00,59.7,46.7,30.23,SSW,204,9.2,9.2,62,0.00,CLR,,0.00,WeatherDisplay:10.37,2013-10-13 16:49:00,
2013-10-13 12:54:00,59.6,47.4,30.23,South,186,0.0,0.0,64,0.00,CLR,,0.00,WeatherDisplay:10.37,2013-10-13 16:54:00,
2013-10-13 12:59:00,60.3,48.1,30.23,SW,234,6.9,6.9,64,0.00,CLR,,0.00,WeatherDisplay:10.37,2013-10-13 16:59:00,
2013-10-13 13:04:00,60.1,47.0,30.23,SSW,211,4.6,4.6,62,0.00,CLR,,0.00,WeatherDisplay:10.37,2013-10-13 17:04:00,
2013-10-13 13:09:00,60.4,47.7,30.23,WNW,302,1.1,1.1,63,0.00,CLR,,0.00,WeatherDisplay:10.37,2013-10-13 17:09:00,
2013-10-13 13:14:00,61.1,48.8,30.23,NW,323,0.0,0.0,64,0.00,CLR,,0.00,WeatherDisplay:10.37,2013-10-13 17:14:00,
2013-10-13 13:19:00,60.7,47.6,30.23,WSW,238,2.3,0.0,62,0.00,CLR,,0.00,WeatherDisplay:10.37,2013-10-13 17:19:00,
2013-10-13 13:24:00,60.9,47.4,30.23,WSW,238,4.6,4.6,61,0.00,CLR,,0.00,WeatherDisplay:10.37,2013-10-13 17:24:00,
2013-10-13 13:29:00,61.2,47.6,30.23,ENE,62,3.5,3.5,61,0.00,CLR,,0.00,WeatherDisplay:10.37,2013-10-13 17:29:00,
2013-10-13 13:34:00,61.5,47.9,30.23,NW,323,9.2,9.2,61,0.00,CLR,,0.00,WeatherDisplay:10.37,2013-10-13 17:34:00,
2013-10-13 13:39:00,61.6,47.1,30.22,SW,236,8.1,8.1,59,0.00,CLR,,0.00,WeatherDisplay:10.37,2013-10-13 17:39:00,
2013-10-13 13:44:00,61.8,46.9,30.23,South,175,5.8,5.8,58,0.00,CLR,,0.00,WeatherDisplay:10.37,2013-10-13 17:44:00,
2013-10-13 13:49:00,62.2,49.0,30.22,WNW,284,1.1,1.1,62,0.00,CLR,,0.00,WeatherDisplay:10.37,2013-10-13 17:49:00,
2013-10-13 13:54:00,62.0,47.5,30.22,SW,221,9.2,9.2,59,0.00,CLR,,0.00,WeatherDisplay:10.37,2013-10-13 17:54:00,
2013-10-13 13:59:00,62.0,47.0,30.22,NW,308,4.6,4.6,58,0.00,CLR,,0.00,WeatherDisplay:10.37,2013-10-13 17:59:00,
2013-10-13 14:04:00,62.2,47.7,30.22,WSW,246,3.0,0.0,59,0.00,CLR,,0.00,WeatherDisplay:10.37,2013-10-13 18:04:00,
2013-10-13 14:09:00,62.7,47.2,30.22,NE,46,2.3,0.0,57,0.00,CLR,,0.00,WeatherDisplay:10.37,2013-10-13 18:09:00,
2013-10-13 14:14:00,62.4,47.4,30.22,WSW,250,1.1,0.0,58,0.00,CLR,,0.00,WeatherDisplay:10.37,2013-10-13 18:14:00,
2013-10-13 14:19:00,62.5,48.0,30.22,WSW,257,1.1,1.1,59,0.00,CLR,,0.00,WeatherDisplay:10.37,2013-10-13 18:19:00,
2013-10-13 14:24:00,63.2,47.7,30.22,WSW,244,3.0,3.0,57,0.00,CLR,,0.00,WeatherDisplay:10.37,2013-10-13 18:24:00,
2013-10-13 14:29:00,63.8,47.8,30.22,West,268,7.0,7.0,56,0.00,CLR,,0.00,WeatherDisplay:10.37,2013-10-13 18:29:00,
2013-10-13 14:34:00,63.8,47.3,30.22,NW,326,3.5,3.5,55,0.00,CLR,,0.00,WeatherDisplay:10.37,2013-10-13 18:34:00,
2013-10-13 14:39:00,63.6,47.1,30.22,NNW,343,6.9,6.9,55,0.00,CLR,,0.00,WeatherDisplay:10.37,2013-10-13 18:39:00,
2013-10-13 14:44:00,63.6,47.1,30.22,SW,226,10.4,10.4,55,0.00,CLR,,0.00,WeatherDisplay:10.37,2013-10-13 18:44:00,
2013-10-13 14:49:00,63.5,47.0,30.22,SW,221,5.8,5.8,55,0.00,CLR,,0.00,WeatherDisplay:10.37,2013-10-13 18:49:00,
2013-10-13 14:54:00,63.3,46.4,30.22,SW,214,12.7,12.7,54,0.00,CLR,,0.00,WeatherDisplay:10.37,2013-10-13 18:54:00,
2013-10-13 14:59:00,63.3,46.9,30.22,WSW,246,13.8,13.8,55,0.00,CLR,,0.00,WeatherDisplay:10.37,2013-10-13 18:59:00,
2013-10-13 15:04:00,63.7,46.7,30.22,WSW,250,3.5,3.5,54,0.00,CLR,,0.00,WeatherDisplay:10.37,2013-10-13 19:04:00,
2013-10-13 15:09:00,64.3,47.8,30.22,SSW,211,4.6,4.6,55,0.00,CLR,,0.00,WeatherDisplay:10.37,2013-10-13 19:09:00,
2013-10-13 15:14:00,64.0,47.5,30.22,South,178,5.8,5.8,55,0.00,CLR,,0.00,WeatherDisplay:10.37,2013-10-13 19:14:00,
2013-10-13 15:19:00,64.1,47.6,30.22,SW,226,4.0,4.0,55,0.00,CLR,,0.00,WeatherDisplay:10.37,2013-10-13 19:19:00,
2013-10-13 15:24:00,63.4,47.4,30.22,NNE,13,0.0,0.6,56,0.00,CLR,,0.00,WeatherDisplay:10.37,2013-10-13 19:24:00,
2013-10-13 15:29:00,62.4,47.0,30.22,West,270,4.6,4.6,57,0.00,CLR,,0.00,WeatherDisplay:10.37,2013-10-13 19:29:00,
2013-10-13 15:34:00,62.0,46.6,30.23,West,273,1.0,0.0,57,0.00,CLR,,0.00,WeatherDisplay:10.37,2013-10-13 19:34:00,
2013-10-13 15:39:00,61.6,46.2,30.22,West,265,3.5,3.5,57,0.00,CLR,,0.00,WeatherDisplay:10.37,2013-10-13 19:39:00,
2013-10-13 15:44:00,61.9,45.5,30.22,SSW,201,4.6,4.6,55,0.00,CLR,,0.00,WeatherDisplay:10.37,2013-10-13 19:44:00,
2013-10-13 15:49:00,62.3,45.4,30.22,WSW,254,1.1,1.5,54,0.00,CLR,,0.00,WeatherDisplay:10.37,2013-10-13 19:49:00,
2013-10-13 15:54:00,62.9,45.0,30.22,SW,225,10.4,10.4,52,0.00,CLR,,0.00,WeatherDisplay:10.37,2013-10-13 19:54:00,
2013-10-13 15:59:00,63.1,45.2,30.22,SW,216,2.3,2.3,52,0.00,CLR,,0.00,WeatherDisplay:10.37,2013-10-13 19:59:00,
2013-10-13 16:04:00,63.2,45.3,30.22,WSW,244,4.6,4.6,52,0.00,CLR,,0.00,WeatherDisplay:10.37,2013-10-13 20:04:00,
2013-10-13 16:09:00,63.5,45.6,30.22,WSW,242,0.0,0.0,52,0.00,CLR,,0.00,WeatherDisplay:10.37,2013-10-13 20:09:00,
2013-10-13 16:14:00,64.1,46.1,30.23,WSW,246,1.1,0.0,52,0.00,CLR,,0.00,WeatherDisplay:10.37,2013-10-13 20:14:00,
2013-10-13 16:19:00,64.5,46.0,30.23,WNW,296,3.5,3.5,51,0.00,CLR,,0.00,WeatherDisplay:10.37,2013-10-13 20:19:00,
2013-10-13 16:24:00,64.8,45.2,30.23,North,355,4.6,4.6,49,0.00,CLR,,0.00,WeatherDisplay:10.37,2013-10-13 20:24:00,
2013-10-13 16:29:00,64.8,45.7,30.23,NNE,26,1.1,1.1,50,0.00,CLR,,0.00,WeatherDisplay:10.37,2013-10-13 20:29:00,
2013-10-13 16:34:00,64.5,45.4,30.23,WNW,300,0.0,0.0,50,0.00,CLR,,0.00,WeatherDisplay:10.37,2013-10-13 20:34:00,
2013-10-13 16:39:00,64.1,45.6,30.23,North,9,1.0,0.0,51,0.00,CLR,,0.00,WeatherDisplay:10.37,2013-10-13 20:39:00,
2013-10-13 16:44:00,64.3,45.3,30.23,WSW,257,5.8,5.8,50,0.00,CLR,,0.00,WeatherDisplay:10.37,2013-10-13 20:44:00,
2013-10-13 16:49:00,63.8,45.8,30.23,WSW,248,4.6,4.6,52,0.00,CLR,,0.00,WeatherDisplay:10.37,2013-10-13 20:49:00,
2013-10-13 16:54:00,63.8,46.3,30.23,WNW,282,0.0,0.0,53,0.00,CLR,,0.00,WeatherDisplay:10.37,2013-10-13 20:54:00,
2013-10-13 16:59:00,63.9,45.9,30.23,West,267,9.2,9.2,52,0.00,CLR,,0.00,WeatherDisplay:10.37,2013-10-13 20:59:00,
2013-10-13 17:04:00,63.2,45.8,30.23,SW,229,10.4,10.4,53,0.00,CLR,,0.00,WeatherDisplay:10.37,2013-10-13 21:04:00,
2013-10-13 17:09:00,62.6,46.2,30.23,WSW,256,8.0,8.0,55,0.00,CLR,,0.00,WeatherDisplay:10.37,2013-10-13 21:09:00,
2013-10-13 17:14:00,62.1,46.2,30.23,WSW,244,0.0,0.0,56,0.00,CLR,,0.00,WeatherDisplay:10.37,2013-10-13 21:14:00,
2013-10-13 17:19:00,61.7,46.3,30.24,WSW,254,1.1,1.1,57,0.00,CLR,,0.00,WeatherDisplay:10.37,2013-10-13 21:19:00,
2013-10-13 17:24:00,61.1,45.7,30.24,SW,222,2.0,2.0,57,0.00,CLR,,0.00,WeatherDisplay:10.37,2013-10-13 21:24:00,
2013-10-13 17:29:00,60.5,45.2,30.24,WSW,257,0.0,0.9,57,0.00,CLR,,0.00,WeatherDisplay:10.37,2013-10-13 21:29:00,
2013-10-13 17:34:00,60.1,45.3,30.24,West,271,0.0,0.4,58,0.00,CLR,,0.00,WeatherDisplay:10.37,2013-10-13 21:34:00,
2013-10-13 17:39:00,59.8,45.0,30.24,WNW,288,0.0,0.1,58,0.00,CLR,,0.00,WeatherDisplay:10.37,2013-10-13 21:39:00,
2013-10-13 17:44:00,59.5,45.2,30.24,West,278,3.5,3.5,59,0.00,CLR,,0.00,WeatherDisplay:10.37,2013-10-13 21:44:00,
2013-10-13 17:49:00,59.0,45.1,30.24,WSW,238,5.8,5.8,60,0.00,CLR,,0.00,WeatherDisplay:10.37,2013-10-13 21:49:00,
2013-10-13 17:54:00,59.0,45.6,30.24,WSW,240,2.3,2.3,61,0.00,CLR,,0.00,WeatherDisplay:10.37,2013-10-13 21:54:00,
2013-10-13 17:59:00,59.0,45.6,30.25,NNW,344,0.0,0.0,61,0.00,CLR,,0.00,WeatherDisplay:10.37,2013-10-13 21:59:00,
2013-10-13 18:04:00,58.8,45.8,30.25,NNW,338,0.0,0.0,62,0.00,CLR,,0.00,WeatherDisplay:10.37,2013-10-13 22:04:00,
2013-10-13 18:09:00,58.6,45.2,30.25,West,264,1.0,1.4,61,0.00,CLR,,0.00,WeatherDisplay:10.37,2013-10-13 22:09:00,
2013-10-13 18:14:00,58.4,45.4,30.25,WSW,252,3.5,3.5,62,0.00,CLR,,0.00,WeatherDisplay:10.37,2013-10-13 22:14:00,
2013-10-13 18:19:00,58.3,45.3,30.25,WSW,255,0.0,0.0,62,0.00,CLR,,0.00,WeatherDisplay:10.37,2013-10-13 22:19:00,
2013-10-13 18:24:00,58.1,45.1,30.25,West,259,0.0,0.0,62,0.00,CLR,,0.00,WeatherDisplay:10.37,2013-10-13 22:24:00,
2013-10-13 18:29:00,58.0,45.5,30.25,West,260,0.0,0.0,63,0.00,CLR,,0.00,WeatherDisplay:10.37,2013-10-13 22:29:00,
2013-10-13 18:34:00,57.8,45.3,30.25,West,260,1.0,0.0,63,0.00,CLR,,0.00,WeatherDisplay:10.37,2013-10-13 22:34:00,
2013-10-13 18:39:00,57.6,45.1,30.25,West,261,0.0,0.0,63,0.00,CLR,,0.00,WeatherDisplay:10.37,2013-10-13 22:39:00,
2013-10-13 18:44:00,57.4,44.5,30.25,West,260,0.0,0.0,62,0.00,CLR,,0.00,WeatherDisplay:10.37,2013-10-13 22:44:00,
2013-10-13 18:49:00,57.0,44.9,30.25,West,260,0.0,0.0,64,0.00,CLR,,0.00,WeatherDisplay:10.37,2013-10-13 22:49:00,
2013-10-13 18:54:00,56.6,44.6,30.25,West,261,0.0,0.0,64,0.00,CLR,,0.00,WeatherDisplay:10.37,2013-10-13 22:54:00,
2013-10-13 18:59:00,56.2,45.0,30.25,West,261,0.0,0.0,66,0.00,CLR,,0.00,WeatherDisplay:10.37,2013-10-13 22:59:00,
2013-10-13 19:04:00,55.8,45.0,30.26,West,261,0.0,0.0,67,0.00,CLR,,0.00,WeatherDisplay:10.37,2013-10-13 23:04:00,
2013-10-13 19:09:00,55.2,44.0,30.26,West,260,0.0,0.0,66,0.00,CLR,,0.00,WeatherDisplay:10.37,2013-10-13 23:09:00,
2013-10-13 19:14:00,54.6,43.5,30.26,West,260,0.0,0.0,66,0.00,CLR,,0.00,WeatherDisplay:10.37,2013-10-13 23:14:00,
2013-10-13 19:19:00,54.1,43.4,30.26,West,261,0.0,0.0,67,0.00,CLR,,0.00,WeatherDisplay:10.37,2013-10-13 23:19:00,
2013-10-13 19:24:00,53.5,43.2,30.27,West,260,0.0,0.0,68,0.00,CLR,,0.00,WeatherDisplay:10.37,2013-10-13 23:24:00,
2013-10-13 19:29:00,53.0,43.1,30.27,West,260,0.0,0.0,69,0.00,CLR,,0.00,WeatherDisplay:10.37,2013-10-13 23:29:00,
2013-10-13 19:34:00,52.4,42.9,30.27,West,261,0.0,0.0,70,0.00,CLR,,0.00,WeatherDisplay:10.37,2013-10-13 23:34:00,
2013-10-13 19:39:00,51.9,42.8,30.27,West,261,0.0,0.0,71,0.00,CLR,,0.00,WeatherDisplay:10.37,2013-10-13 23:39:00,
2013-10-13 19:44:00,51.4,43.0,30.27,West,260,0.0,0.0,73,0.00,CLR,,0.00,WeatherDisplay:10.37,2013-10-13 23:44:00,
2013-10-13 19:49:00,50.9,42.9,30.27,West,260,0.0,0.0,74,0.00,CLR,,0.00,WeatherDisplay:10.37,2013-10-13 23:49:00,
2013-10-13 19:54:00,50.4,42.8,30.27,West,261,0.0,0.0,75,0.00,CLR,,0.00,WeatherDisplay:10.37,2013-10-13 23:54:00,
2013-10-13 19:59:00,50.0,42.7,30.27,West,260,0.0,0.0,76,0.00,CLR,,0.00,WeatherDisplay:10.37,2013-10-13 23:59:00,
2013-10-13 20:04:00,49.6,42.7,30.28,West,261,0.0,0.0,77,0.00,CLR,,0.00,WeatherDisplay:10.37,2013-10-14 00:04:00,
2013-10-13 20:09:00,49.2,42.6,30.28,West,261,0.0,0.0,78,0.00,CLR,,0.00,WeatherDisplay:10.37,2013-10-14 00:09:00,
2013-10-13 20:14:00,49.0,42.8,30.28,West,261,0.0,0.0,79,0.00,CLR,,0.00,WeatherDisplay:10.37,2013-10-14 00:14:00,
2013-10-13 20:19:00,48.9,42.7,30.28,West,261,0.0,0.0,79,0.00,CLR,,0.00,WeatherDisplay:10.37,2013-10-14 00:19:00,
2013-10-13 20:24:00,48.8,42.6,30.28,West,260,0.0,0.0,79,0.00,CLR,,0.00,WeatherDisplay:10.37,2013-10-14 00:24:00,
2013-10-13 20:29:00,48.8,42.9,30.28,West,261,0.0,0.0,80,0.00,CLR,,0.00,WeatherDisplay:10.37,2013-10-14 00:29:00,
2013-10-13 20:34:00,48.9,43.3,30.28,West,260,0.0,0.0,81,0.00,CLR,,0.00,WeatherDisplay:10.37,2013-10-14 00:34:00,
2013-10-13 20:39:00,48.8,43.2,30.28,West,260,0.0,0.0,81,0.00,CLR,,0.00,WeatherDisplay:10.37,2013-10-14 00:39:00,
2013-10-13 20:44:00,48.7,43.1,30.29,West,260,0.0,0.0,81,0.00,CLR,,0.00,WeatherDisplay:10.37,2013-10-14 00:44:00,
2013-10-13 20:49:00,48.5,43.3,30.29,West,261,0.0,0.0,82,0.00,CLR,,0.00,WeatherDisplay:10.37,2013-10-14 00:49:00,
2013-10-13 20:54:00,48.3,43.1,30.29,West,261,0.0,0.0,82,0.00,CLR,,0.00,WeatherDisplay:10.37,2013-10-14 00:54:00,
2013-10-13 20:59:00,48.0,43.1,30.29,West,260,0.0,0.0,83,0.00,CLR,,0.00,WeatherDisplay:10.37,2013-10-14 00:59:00,
2013-10-13 21:04:00,47.7,42.8,30.29,West,260,0.0,0.0,83,0.00,CLR,,0.00,WeatherDisplay:10.37,2013-10-14 01:04:00,
2013-10-13 21:09:00,47.4,42.8,30.29,West,260,0.0,0.0,84,0.00,CLR,,0.00,WeatherDisplay:10.37,2013-10-14 01:09:00,
2013-10-13 21:14:00,47.1,42.5,30.29,West,260,0.0,0.0,84,0.00,CLR,,0.00,WeatherDisplay:10.37,2013-10-14 01:14:00,
2013-10-13 21:19:00,46.8,42.5,30.30,West,260,0.0,0.0,85,0.00,CLR,,0.00,WeatherDisplay:10.37,2013-10-14 01:19:00,
2013-10-13 21:24:00,46.6,42.6,30.30,West,261,0.0,0.0,86,0.00,CLR,,0.00,WeatherDisplay:10.37,2013-10-14 01:24:00,
2013-10-13 21:29:00,46.3,42.3,30.30,West,261,0.0,0.0,86,0.00,CLR,,0.00,WeatherDisplay:10.37,2013-10-14 01:29:00,
2013-10-13 21:34:00,46.0,42.3,30.30,West,260,0.0,0.0,87,0.00,CLR,,0.00,WeatherDisplay:10.37,2013-10-14 01:34:00,
2013-10-13 21:39:00,45.8,42.4,30.30,West,260,0.0,0.0,88,0.00,CLR,,0.00,WeatherDisplay:10.37,2013-10-14 01:39:00,
2013-10-13 21:44:00,45.7,42.3,30.30,West,261,0.0,0.0,88,0.00,CLR,,0.00,WeatherDisplay:10.37,2013-10-14 01:44:00,
2013-10-13 21:49:00,45.6,42.5,30.30,West,261,0.0,0.0,89,0.00,CLR,,0.00,WeatherDisplay:10.37,2013-10-14 01:49:00,
2013-10-13 21:54:00,45.5,42.4,30.30,West,261,0.0,0.0,89,0.00,CLR,,0.00,WeatherDisplay:10.37,2013-10-14 01:54:00,
2013-10-13 21:59:00,45.5,42.7,30.31,West,261,0.0,0.0,90,0.00,CLR,,0.00,WeatherDisplay:10.37,2013-10-14 01:59:00,
2013-10-13 22:04:00,45.4,42.6,30.31,West,261,0.0,0.0,90,0.00,CLR,,0.00,WeatherDisplay:10.37,2013-10-14 02:04:00,
2013-10-13 22:09:00,45.4,42.6,30.31,West,261,0.0,0.0,90,0.00,CLR,,0.00,WeatherDisplay:10.37,2013-10-14 02:09:00,
2013-10-13 22:14:00,45.3,42.8,30.32,West,261,0.0,0.0,91,0.00,CLR,,0.00,WeatherDisplay:10.37,2013-10-14 02:14:00,
2013-10-13 22:19:00,45.3,42.8,30.31,West,261,0.0,0.0,91,0.00,CLR,,0.00,WeatherDisplay:10.37,2013-10-14 02:19:00,
2013-10-13 22:24:00,45.2,42.7,30.32,West,261,0.0,0.0,91,0.00,CLR,,0.00,WeatherDisplay:10.37,2013-10-14 02:24:00,
2013-10-13 22:29:00,45.2,42.7,30.32,West,261,0.0,0.0,91,0.00,CLR,,0.00,WeatherDisplay:10.37,2013-10-14 02:29:00,
2013-10-13 22:34:00,45.2,42.7,30.32,West,260,0.0,0.0,91,0.00,CLR,,0.00,WeatherDisplay:10.37,2013-10-14 02:34:00,
2013-10-13 22:39:00,45.1,42.6,30.32,West,261,0.0,0.0,91,0.00,CLR,,0.00,WeatherDisplay:10.37,2013-10-14 02:39:00,
2013-10-13 22:44:00,45.0,42.8,30.32,West,261,0.0,0.0,92,0.00,CLR,,0.00,WeatherDisplay:10.37,2013-10-14 02:44:00,
2013-10-13 22:49:00,44.9,42.7,30.32,West,260,0.0,0.0,92,0.00,CLR,,0.00,WeatherDisplay:10.37,2013-10-14 02:49:00,
2013-10-13 22:54:00,44.8,42.6,30.32,West,261,0.0,0.0,92,0.00,CLR,,0.00,WeatherDisplay:10.37,2013-10-14 02:54:00,
2013-10-13 23:00:00,44.6,42.4,30.32,West,261,0.0,0.0,92,0.00,CLR,,0.00,WeatherDisplay:10.37,2013-10-14 03:00:00,
2013-10-13 23:05:00,44.4,42.2,30.32,West,261,0.0,0.0,92,0.00,CLR,,0.00,WeatherDisplay:10.37,2013-10-14 03:05:00,
2013-10-13 23:10:00,44.3,42.4,30.32,West,261,0.0,0.0,93,0.00,CLR,,0.00,WeatherDisplay:10.37,2013-10-14 03:10:00,
2013-10-13 23:15:00,44.1,42.2,30.32,West,261,0.0,0.0,93,0.00,CLR,,0.00,WeatherDisplay:10.37,2013-10-14 03:15:00,
2013-10-13 23:20:00,44.1,42.2,30.32,West,261,0.0,0.0,93,0.00,CLR,,0.00,WeatherDisplay:10.37,2013-10-14 03:20:00,
2013-10-13 23:25:00,44.0,42.1,30.32,West,261,0.0,0.0,93,0.00,CLR,,0.00,WeatherDisplay:10.37,2013-10-14 03:25:00,
2013-10-13 23:30:00,43.8,41.9,30.32,West,261,0.0,0.0,93,0.00,CLR,,0.00,WeatherDisplay:10.37,2013-10-14 03:30:00,
2013-10-13 23:35:00,43.8,41.9,30.32,West,260,0.0,0.0,93,0.00,CLR,,0.00,WeatherDisplay:10.37,2013-10-14 03:35:00,
2013-10-13 23:40:00,43.6,41.7,30.32,West,260,0.0,0.0,93,0.00,CLR,,0.00,WeatherDisplay:10.37,2013-10-14 03:40:00,
2013-10-13 23:45:00,43.4,41.8,30.32,West,260,0.0,0.0,94,0.00,CLR,,0.00,WeatherDisplay:10.37,2013-10-14 03:45:00,
2013-10-13 23:50:00,43.3,41.7,30.32,West,261,0.0,0.0,94,0.00,CLR,,0.00,WeatherDisplay:10.37,2013-10-14 03:50:00,
2013-10-13 23:55:00,43.2,41.6,30.32,West,260,0.0,0.0,94,0.00,CLR,,0.00,WeatherDisplay:10.37,2013-10-14 03:55:00,